Time;durP1;ratioP1;P1;durP2;ratioP2;P2;SDS_P1;SDS_P2;PMS_P1;PMS_P2;Temp;Humidity;BMP_temperature;BMP_pressure;BME280_temperature;BME280_humidity;BME280_pressure;Samples;Min_cycle;Max_cycle;Signal;HPM_P1;HPM_P2
2023/09/19 00:00:41;;;;;;;17.63;5.97;;;;;;;;;;5045588;28;20107;-67
2023/09/19 00:03:08;;;;;;;14.35;6.63;;;;;;;;;;5045827;28;20044;-67
2023/09/19 00:05:39;;;;;;;11.98;6.35;;;;;;;;;;5047466;28;20045;-68
2023/09/19 00:08:06;;;;;;;14.88;6.70;;;;;;;;;;5046104;28;20049;-67
2023/09/19 00:10:34;;;;;;;16.83;6.70;;;;;;;;;;5046046;28;20049;-68
2023/09/19 00:13:05;;;;;;;15.82;6.78;;;;;;;;;;5041469;28;20469;-67
2023/09/19 00:15:37;;;;;;;14.55;6.63;;;;;;;;;;5043522;28;20045;-67
2023/09/19 00:18:06;;;;;;;15.93;6.57;;;;;;;;;;5046493;28;20053;-67
2023/09/19 00:20:34;;;;;;;15.38;6.70;;;;;;;;;;5047217;28;20056;-67
2023/09/19 00:23:08;;;;;;;15.20;7.47;;;;;;;;;;5042815;28;20450;-67
2023/09/19 00:25:36;;;;;;;16.02;7.13;;;;;;;;;;5048626;28;20412;-67
2023/09/19 00:28:04;;;;;;;16.70;7.57;;;;;;;;;;5040458;28;20041;-67
2023/09/19 00:30:31;;;;;;;20.13;7.78;;;;;;;;;;5048644;28;20051;-67
2023/09/19 00:32:57;;;;;;;18.45;7.50;;;;;;;;;;5040785;28;20053;-67
2023/09/19 00:35:24;;;;;;;13.60;6.88;;;;;;;;;;5047662;28;20041;-68
2023/09/19 00:37:51;;;;;;;17.63;7.28;;;;;;;;;;5037841;28;20053;-67
2023/09/19 00:40:21;;;;;;;16.55;7.47;;;;;;;;;;5037790;28;20063;-67
2023/09/19 00:42:48;;;;;;;15.65;7.15;;;;;;;;;;5048124;28;20409;-67
2023/09/19 00:45:16;;;;;;;17.98;6.85;;;;;;;;;;5042290;28;20045;-68
2023/09/19 00:47:45;;;;;;;19.17;7.72;;;;;;;;;;5039713;28;20055;-67
2023/09/19 00:50:14;;;;;;;13.27;7.20;;;;;;;;;;5042727;28;20095;-67
2023/09/19 00:52:43;;;;;;;17.05;6.70;;;;;;;;;;5050220;28;20068;-68
2023/09/19 00:55:11;;;;;;;16.67;6.90;;;;;;;;;;5044573;28;20046;-67
2023/09/19 00:57:40;;;;;;;16.85;7.40;;;;;;;;;;5041715;28;20057;-67
2023/09/19 01:00:12;;;;;;;18.38;7.45;;;;;;;;;;5042808;28;20048;-67
2023/09/19 01:02:38;;;;;;;15.27;7.27;;;;;;;;;;5041165;28;20129;-67
2023/09/19 01:05:06;;;;;;;19.30;7.18;;;;;;;;;;5050893;28;20284;-67
2023/09/19 01:07:34;;;;;;;18.42;7.82;;;;;;;;;;5040039;28;20100;-67
2023/09/19 01:10:02;;;;;;;17.42;7.80;;;;;;;;;;5048184;28;20068;-67
2023/09/19 01:12:50;;;;;;;17.95;7.68;;;;;;;;;;5037630;28;20092;-67
2023/09/19 01:15:28;;;;;;;17.65;7.85;;;;;;;;;;5045360;28;20081;-67
2023/09/19 01:18:02;;;;;;;16.45;7.72;;;;;;;;;;5042523;28;20128;-67
2023/09/19 01:20:38;;;;;;;18.02;7.97;;;;;;;;;;5042429;28;20109;-67
2023/09/19 01:23:14;;;;;;;16.75;7.43;;;;;;;;;;5042780;28;20120;-67
2023/09/19 01:26:13;;;;;;;17.50;7.70;;;;;;;;;;5045055;28;20266;-67
2023/09/19 01:29:14;;;;;;;20.40;7.65;;;;;;;;;;5043101;28;20045;-67
2023/09/19 01:31:43;;;;;;;21.73;7.53;;;;;;;;;;5047124;28;20119;-67
2023/09/19 01:34:10;;;;;;;19.75;8.23;;;;;;;;;;5045675;28;20055;-67
2023/09/19 01:36:38;;;;;;;15.40;7.90;;;;;;;;;;5047853;28;20049;-67
2023/09/19 01:39:09;;;;;;;17.80;8.23;;;;;;;;;;5039602;28;20045;-67
2023/09/19 01:41:49;;;;;;;17.92;7.40;;;;;;;;;;5044160;28;20135;-67
2023/09/19 01:44:21;;;;;;;19.60;7.32;;;;;;;;;;5048692;28;20131;-67
2023/09/19 01:46:49;;;;;;;;;;;;;;;;;;5049319;28;20586;-68
2023/09/19 01:49:28;;;;;;;22.90;8.10;;;;;;;;;;5053105;28;19920;-67
2023/09/19 01:51:59;;;;;;;20.30;8.50;;;;;;;;;;5045011;28;20080;-67
2023/09/19 01:54:27;;;;;;;21.58;9.10;;;;;;;;;;5045104;28;20128;-67
2023/09/19 01:57:01;;;;;;;15.10;7.78;;;;;;;;;;5049799;28;20049;-67
2023/09/19 01:59:32;;;;;;;22.17;8.20;;;;;;;;;;5050540;28;20079;-67
2023/09/19 02:02:00;;;;;;;19.40;9.02;;;;;;;;;;5051709;28;20481;-67
2023/09/19 02:04:28;;;;;;;18.67;9.30;;;;;;;;;;5048816;28;20052;-67
2023/09/19 02:06:55;;;;;;;19.45;8.90;;;;;;;;;;5047283;28;20049;-67
2023/09/19 02:09:22;;;;;;;21.63;8.52;;;;;;;;;;5037040;28;20107;-67
2023/09/19 02:11:49;;;;;;;16.95;8.27;;;;;;;;;;5048493;28;20120;-67
2023/09/19 02:14:15;;;;;;;16.73;9.13;;;;;;;;;;5051048;28;20450;-67
2023/09/19 02:16:42;;;;;;;22.20;9.07;;;;;;;;;;5043127;28;20052;-68
2023/09/19 02:19:10;;;;;;;18.27;8.20;;;;;;;;;;5050548;28;20094;-67
2023/09/19 02:21:37;;;;;;;24.08;8.38;;;;;;;;;;5043606;28;20046;-67
2023/09/19 02:24:05;;;;;;;20.88;8.63;;;;;;;;;;5044761;28;20103;-67
2023/09/19 02:26:31;;;;;;;20.90;8.70;;;;;;;;;;5053737;28;20049;-67
2023/09/19 02:28:58;;;;;;;22.27;8.60;;;;;;;;;;5045673;28;20417;-67
2023/09/19 02:31:24;;;;;;;19.98;9.15;;;;;;;;;;5040310;28;20052;-67
2023/09/19 02:33:51;;;;;;;17.85;8.48;;;;;;;;;;5043952;28;20048;-67
2023/09/19 02:36:19;;;;;;;22.70;8.85;;;;;;;;;;5043048;28;20048;-67
2023/09/19 02:38:46;;;;;;;18.20;8.38;;;;;;;;;;5045130;28;20099;-67
2023/09/19 02:41:13;;;;;;;17.40;8.38;;;;;;;;;;5039684;28;20041;-67
2023/09/19 02:43:39;;;;;;;19.17;8.70;;;;;;;;;;5048913;28;20080;-67
2023/09/19 02:46:06;;;;;;;15.82;7.72;;;;;;;;;;5044675;28;20060;-67
2023/09/19 02:48:34;;;;;;;22.17;8.48;;;;;;;;;;5039473;28;20045;-67
2023/09/19 02:51:01;;;;;;;18.27;8.52;;;;;;;;;;5050951;28;20079;-68
2023/09/19 02:53:30;;;;;;;24.05;8.32;;;;;;;;;;5040643;28;20136;-67
2023/09/19 02:55:57;;;;;;;20.42;8.82;;;;;;;;;;5047492;28;20040;-67
2023/09/19 02:58:24;;;;;;;24.33;8.95;;;;;;;;;;5046888;28;20076;-67
2023/09/19 03:00:51;;;;;;;20.25;8.98;;;;;;;;;;5046403;28;20049;-67
2023/09/19 03:03:17;;;;;;;20.27;8.60;;;;;;;;;;5047898;28;20077;-67
2023/09/19 03:05:46;;;;;;;22.17;8.98;;;;;;;;;;5050484;28;20049;-67
2023/09/19 03:08:14;;;;;;;19.08;8.63;;;;;;;;;;5041145;28;20507;-67
2023/09/19 03:10:42;;;;;;;20.92;8.45;;;;;;;;;;5051660;28;20131;-67
2023/09/19 03:13:10;;;;;;;21.38;8.35;;;;;;;;;;5046698;28;20044;-67
2023/09/19 03:15:38;;;;;;;16.65;8.18;;;;;;;;;;5049926;28;20080;-67
2023/09/19 03:18:05;;;;;;;19.52;7.85;;;;;;;;;;5036143;28;20049;-67
2023/09/19 03:20:32;;;;;;;21.70;8.30;;;;;;;;;;5047388;28;20049;-67
2023/09/19 03:23:00;;;;;;;19.60;8.45;;;;;;;;;;5049685;28;20045;-67
2023/09/19 03:25:28;;;;;;;17.33;7.90;;;;;;;;;;5041378;28;20052;-67
2023/09/19 03:27:57;;;;;;;14.60;7.70;;;;;;;;;;5040417;28;20152;-67
2023/09/19 03:30:24;;;;;;;14.13;6.97;;;;;;;;;;5037608;28;20050;-67
2023/09/19 03:32:51;;;;;;;19.38;7.82;;;;;;;;;;5039887;28;20081;-67
2023/09/19 03:35:18;;;;;;;17.33;7.32;;;;;;;;;;5045921;28;20560;-67
2023/09/19 03:37:45;;;;;;;14.55;6.65;;;;;;;;;;5043800;28;20158;-67
2023/09/19 03:40:12;;;;;;;18.35;7.00;;;;;;;;;;5035832;28;20099;-67
2023/09/19 03:42:39;;;;;;;15.05;6.47;;;;;;;;;;5046134;28;20087;-67
2023/09/19 03:45:11;;;;;;;12.25;6.63;;;;;;;;;;5049207;28;20044;-67
2023/09/19 03:47:38;;;;;;;16.55;6.38;;;;;;;;;;5043277;28;20045;-67
2023/09/19 03:50:07;;;;;;;16.92;6.40;;;;;;;;;;5042754;28;20132;-67
2023/09/19 03:52:33;;;;;;;11.65;6.63;;;;;;;;;;5046924;28;20053;-67
2023/09/19 03:55:00;;;;;;;18.02;6.65;;;;;;;;;;5038355;28;20056;-67
2023/09/19 03:57:27;;;;;;;16.85;6.68;;;;;;;;;;5043229;28;20052;-67
2023/09/19 03:59:54;;;;;;;19.05;7.25;;;;;;;;;;5045864;28;20461;-67
2023/09/19 04:02:23;;;;;;;20.50;7.50;;;;;;;;;;5040067;28;20041;-67
2023/09/19 04:04:50;;;;;;;17.45;7.70;;;;;;;;;;5048696;28;20087;-67
2023/09/19 04:07:16;;;;;;;17.15;7.68;;;;;;;;;;5048711;28;20083;-67
2023/09/19 04:09:43;;;;;;;17.83;8.43;;;;;;;;;;5048924;28;20518;-67
2023/09/19 04:12:09;;;;;;;19.30;7.68;;;;;;;;;;5048398;28;20128;-67
2023/09/19 04:14:36;;;;;;;13.80;7.57;;;;;;;;;;5039219;28;20045;-67
2023/09/19 04:17:02;;;;;;;16.13;7.45;;;;;;;;;;5045391;28;20049;-67
2023/09/19 04:19:30;;;;;;;15.93;7.60;;;;;;;;;;5040715;28;20040;-67
2023/09/19 04:21:57;;;;;;;14.90;7.25;;;;;;;;;;5043890;28;20045;-67
2023/09/19 04:24:23;;;;;;;14.88;7.53;;;;;;;;;;5038810;28;20091;-67
2023/09/19 04:26:50;;;;;;;18.95;7.13;;;;;;;;;;5040176;28;20051;-67
2023/09/19 04:29:19;;;;;;;14.88;6.32;;;;;;;;;;5041188;28;20045;-67
2023/09/19 04:31:45;;;;;;;12.55;6.38;;;;;;;;;;5042771;28;20135;-67
2023/09/19 04:34:17;;;;;;;15.38;6.40;;;;;;;;;;5040760;28;20051;-67
2023/09/19 04:36:45;;;;;;;14.95;6.07;;;;;;;;;;5040949;28;20390;-67
2023/09/19 04:39:12;;;;;;;21.13;7.45;;;;;;;;;;5045620;28;20420;-67
2023/09/19 04:41:41;;;;;;;14.57;5.80;;;;;;;;;;5051095;28;20049;-67
2023/09/19 04:44:08;;;;;;;15.13;5.80;;;;;;;;;;5042739;28;20106;-67
2023/09/19 04:46:35;;;;;;;12.52;5.88;;;;;;;;;;5051384;28;20451;-67
2023/09/19 04:49:02;;;;;;;11.35;5.57;;;;;;;;;;5049174;28;20246;-67
2023/09/19 04:51:32;;;;;;;14.23;5.60;;;;;;;;;;5050717;28;20452;-67
2023/09/19 04:54:00;;;;;;;10.20;5.85;;;;;;;;;;5039754;28;20128;-67
2023/09/19 04:56:28;;;;;;;13.10;5.53;;;;;;;;;;5045946;28;20132;-67
2023/09/19 04:58:54;;;;;;;12.93;5.65;;;;;;;;;;5044777;28;20052;-67
2023/09/19 05:01:22;;;;;;;16.25;6.15;;;;;;;;;;5049765;28;20045;-67
2023/09/19 05:03:52;;;;;;;12.73;5.22;;;;;;;;;;5045204;28;20045;-67
2023/09/19 05:06:18;;;;;;;10.80;5.38;;;;;;;;;;5041058;28;20057;-67
2023/09/19 05:08:45;;;;;;;12.23;5.32;;;;;;;;;;5039894;28;20050;-67
2023/09/19 05:11:13;;;;;;;10.57;5.05;;;;;;;;;;5042916;28;20056;-67
2023/09/19 05:13:39;;;;;;;12.07;5.40;;;;;;;;;;5039879;28;20132;-67
2023/09/19 05:16:09;;;;;;;16.00;5.85;;;;;;;;;;5047414;28;20062;-67
2023/09/19 05:18:36;;;;;;;14.02;5.60;;;;;;;;;;5039543;28;20114;-67
2023/09/19 05:21:03;;;;;;;9.80;4.95;;;;;;;;;;5049496;28;20080;-67
2023/09/19 05:23:29;;;;;;;12.02;5.03;;;;;;;;;;5051283;28;20045;-67
2023/09/19 05:25:58;;;;;;;11.20;5.13;;;;;;;;;;5039126;28;20046;-67
2023/09/19 05:28:26;;;;;;;9.85;4.13;;;;;;;;;;5048481;28;20045;-67
2023/09/19 05:30:53;;;;;;;9.10;3.85;;;;;;;;;;5045889;28;20072;-67
2023/09/19 05:33:20;;;;;;;11.35;4.55;;;;;;;;;;5041627;28;20045;-67
2023/09/19 05:35:47;;;;;;;9.20;4.30;;;;;;;;;;5051940;28;20559;-67
2023/09/19 05:38:13;;;;;;;12.95;4.90;;;;;;;;;;5051843;28;20118;-67
2023/09/19 05:40:42;;;;;;;6.80;3.90;;;;;;;;;;5049275;28;20048;-67
2023/09/19 05:43:08;;;;;;;10.10;4.95;;;;;;;;;;5052123;28;20459;-67
2023/09/19 05:45:37;;;;;;;10.25;4.80;;;;;;;;;;5045691;28;20041;-67
2023/09/19 05:48:09;;;;;;;8.27;4.50;;;;;;;;;;5046390;28;20408;-67
2023/09/19 05:50:36;;;;;;;11.37;4.60;;;;;;;;;;5041436;28;20041;-67
2023/09/19 05:53:04;;;;;;;9.88;4.53;;;;;;;;;;5048665;28;20041;-67
2023/09/19 05:55:34;;;;;;;10.90;4.55;;;;;;;;;;5047557;28;20041;-67
2023/09/19 05:58:00;;;;;;;9.65;3.60;;;;;;;;;;5050772;28;20045;-67
2023/09/19 06:00:29;;;;;;;11.75;3.90;;;;;;;;;;5048210;28;20060;-67
2023/09/19 06:02:58;;;;;;;9.88;4.15;;;;;;;;;;5046288;28;20044;-67
2023/09/19 06:05:26;;;;;;;9.63;4.00;;;;;;;;;;5048723;28;20051;-67
2023/09/19 06:07:53;;;;;;;11.00;4.13;;;;;;;;;;5048314;28;20447;-67
2023/09/19 06:10:23;;;;;;;11.35;4.50;;;;;;;;;;5050672;28;20076;-67
2023/09/19 06:12:50;;;;;;;10.15;4.85;;;;;;;;;;5047650;28;20046;-67
2023/09/19 06:15:18;;;;;;;11.25;4.10;;;;;;;;;;5045939;28;20045;-67
2023/09/19 06:17:48;;;;;;;7.85;3.72;;;;;;;;;;5047623;28;20045;-67
2023/09/19 06:20:16;;;;;;;9.32;4.05;;;;;;;;;;5040246;28;20044;-67
2023/09/19 06:22:51;;;;;;;12.60;3.95;;;;;;;;;;5045048;28;20054;-67
2023/09/19 06:25:20;;;;;;;9.52;3.58;;;;;;;;;;5043981;28;20052;-67
2023/09/19 06:27:46;;;;;;;11.57;3.67;;;;;;;;;;5044293;28;20055;-67
2023/09/19 06:30:13;;;;;;;10.95;4.00;;;;;;;;;;5047874;28;20052;-67
2023/09/19 06:32:43;;;;;;;14.60;3.70;;;;;;;;;;5048033;28;20136;-67
2023/09/19 06:35:11;;;;;;;8.98;3.65;;;;;;;;;;5039652;28;20094;-67
2023/09/19 06:37:39;;;;;;;8.35;3.90;;;;;;;;;;5042774;28;20417;-67
2023/09/19 06:40:09;;;;;;;7.38;3.13;;;;;;;;;;5047207;28;20053;-67
2023/09/19 06:42:37;;;;;;;12.85;3.38;;;;;;;;;;5048235;28;20060;-67
2023/09/19 06:45:05;;;;;;;9.20;3.60;;;;;;;;;;5050259;28;20049;-67
2023/09/19 06:47:32;;;;;;;11.52;4.00;;;;;;;;;;5047101;28;20049;-67
2023/09/19 06:49:58;;;;;;;10.70;3.80;;;;;;;;;;5047821;28;20132;-67
2023/09/19 06:52:27;;;;;;;15.57;4.53;;;;;;;;;;5042706;28;20135;-67
2023/09/19 06:54:55;;;;;;;15.25;4.68;;;;;;;;;;5047496;28;20049;-67
2023/09/19 06:57:22;;;;;;;13.60;4.30;;;;;;;;;;5046929;28;20046;-67
2023/09/19 06:59:49;;;;;;;12.23;3.58;;;;;;;;;;5044926;28;20045;-67
2023/09/19 07:02:15;;;;;;;14.07;3.35;;;;;;;;;;5049360;28;20046;-67
2023/09/19 07:04:42;;;;;;;13.68;3.30;;;;;;;;;;5047481;28;20047;-67
2023/09/19 07:07:10;;;;;;;9.55;3.90;;;;;;;;;;5043637;28;20080;-67
2023/09/19 07:09:36;;;;;;;12.10;2.88;;;;;;;;;;5047768;28;20319;-67
2023/09/19 07:12:05;;;;;;;10.88;2.92;;;;;;;;;;5040906;28;20076;-67
2023/09/19 07:14:32;;;;;;;11.82;2.83;;;;;;;;;;5044096;28;20143;-67
2023/09/19 07:16:59;;;;;;;11.88;3.15;;;;;;;;;;5048507;28;20076;-67
2023/09/19 07:19:28;;;;;;;10.98;2.92;;;;;;;;;;5038011;28;20050;-69
2023/09/19 07:21:55;;;;;;;5.20;2.38;;;;;;;;;;5046004;28;20068;-68
2023/09/19 07:24:23;;;;;;;9.77;2.78;;;;;;;;;;5044911;28;20063;-68
2023/09/19 07:26:50;;;;;;;12.13;2.70;;;;;;;;;;5049966;28;20072;-67
2023/09/19 07:29:18;;;;;;;11.43;2.72;;;;;;;;;;5042972;28;20049;-67
2023/09/19 07:31:44;;;;;;;9.52;2.42;;;;;;;;;;5043456;28;20051;-67
2023/09/19 07:34:11;;;;;;;8.63;3.97;;;;;;;;;;5038390;28;20041;-67
2023/09/19 07:36:39;;;;;;;10.60;2.60;;;;;;;;;;5049832;28;20045;-67
2023/09/19 07:39:06;;;;;;;8.65;2.22;;;;;;;;;;5043090;28;20140;-67
2023/09/19 07:41:33;;;;;;;7.80;2.55;;;;;;;;;;5041381;28;20421;-67
2023/09/19 07:44:00;;;;;;;7.40;2.70;;;;;;;;;;5049398;28;20045;-67
2023/09/19 07:46:31;;;;;;;7.93;2.72;;;;;;;;;;5049481;28;20041;-67
2023/09/19 07:48:58;;;;;;;7.88;2.67;;;;;;;;;;5047584;28;20124;-68
2023/09/19 07:51:24;;;;;;;8.55;2.60;;;;;;;;;;5045384;28;20046;-67
2023/09/19 07:53:51;;;;;;;8.00;2.85;;;;;;;;;;5045508;28;20049;-68
2023/09/19 07:56:19;;;;;;;8.55;2.58;;;;;;;;;;5047371;28;20136;-68
2023/09/19 07:58:46;;;;;;;9.43;3.17;;;;;;;;;;5043973;28;20049;-68
2023/09/19 08:01:13;;;;;;;9.90;2.92;;;;;;;;;;5049214;28;20507;-67
2023/09/19 08:03:43;;;;;;;8.82;2.55;;;;;;;;;;5040085;28;20041;-68
2023/09/19 08:06:10;;;;;;;7.50;2.20;;;;;;;;;;5047692;28;20046;-68
2023/09/19 08:08:37;;;;;;;10.27;2.30;;;;;;;;;;5050533;28;20045;-67
2023/09/19 08:11:10;;;;;;;7.22;2.10;;;;;;;;;;5047783;28;20051;-68
2023/09/19 08:13:36;;;;;;;8.82;1.85;;;;;;;;;;5043291;28;20049;-68
2023/09/19 08:16:04;;;;;;;9.23;2.10;;;;;;;;;;5045238;28;20041;-67
2023/09/19 08:18:31;;;;;;;8.55;2.05;;;;;;;;;;5045682;28;20420;-67
2023/09/19 08:21:00;;;;;;;8.15;2.00;;;;;;;;;;5043160;28;20413;-68
2023/09/19 08:23:27;;;;;;;7.90;2.10;;;;;;;;;;5043589;28;20041;-67
2023/09/19 08:25:57;;;;;;;8.57;1.58;;;;;;;;;;5042925;28;20128;-67
2023/09/19 08:28:24;;;;;;;4.78;1.90;;;;;;;;;;5046052;28;20388;-68
2023/09/19 08:30:51;;;;;;;7.78;1.63;;;;;;;;;;5038658;28;20069;-68
2023/09/19 08:33:18;;;;;;;12.27;1.75;;;;;;;;;;5045019;28;20060;-67
2023/09/19 08:35:45;;;;;;;8.55;2.25;;;;;;;;;;5050541;28;20070;-68
2023/09/19 08:38:14;;;;;;;9.10;2.10;;;;;;;;;;5044152;28;20413;-68
2023/09/19 08:40:42;;;;;;;5.70;2.03;;;;;;;;;;5039583;28;20111;-69
2023/09/19 08:43:08;;;;;;;7.38;1.55;;;;;;;;;;5038017;28;20046;-69
2023/09/19 08:45:37;;;;;;;8.75;2.35;;;;;;;;;;5047542;28;20095;-69
2023/09/19 08:48:16;;;;;;;7.68;2.10;;;;;;;;;;5043461;28;20091;-68
2023/09/19 08:50:48;;;;;;;7.03;1.75;;;;;;;;;;5049915;28;20053;-68
2023/09/19 08:53:23;;;;;;;8.57;1.83;;;;;;;;;;5049247;28;20477;-68
2023/09/19 08:55:53;;;;;;;7.45;1.70;;;;;;;;;;5039698;28;20043;-68
2023/09/19 08:58:24;;;;;;;7.10;2.13;;;;;;;;;;5048673;28;20305;-68
2023/09/19 09:00:53;;;;;;;6.63;1.50;;;;;;;;;;5038883;28;20044;-68
2023/09/19 09:03:22;;;;;;;6.18;1.45;;;;;;;;;;5045516;28;20051;-69
2023/09/19 09:05:52;;;;;;;7.22;1.83;;;;;;;;;;5042987;28;20047;-70
2023/09/19 09:08:21;;;;;;;5.43;1.90;;;;;;;;;;5049620;28;20478;-69
2023/09/19 09:10:48;;;;;;;6.25;1.92;;;;;;;;;;5043496;28;20053;-69
2023/09/19 09:13:15;;;;;;;7.60;1.50;;;;;;;;;;5047372;28;20045;-69
2023/09/19 09:15:44;;;;;;;8.80;1.67;;;;;;;;;;5053433;28;20132;-69
2023/09/19 09:18:11;;;;;;;10.77;2.10;;;;;;;;;;5051547;28;20049;-69
2023/09/19 09:20:38;;;;;;;6.40;1.50;;;;;;;;;;5051941;28;20051;-68
2023/09/19 09:23:06;;;;;;;2.97;1.73;;;;;;;;;;5050472;28;20563;-68
2023/09/19 09:25:56;;;;;;;10.23;2.38;;;;;;;;;;5040940;28;20045;-71
2023/09/19 09:28:24;;;;;;;6.85;1.90;;;;;;;;;;5049921;28;20140;-69
2023/09/19 09:30:51;;;;;;;8.55;1.48;;;;;;;;;;5043704;28;20044;-69
2023/09/19 09:33:18;;;;;;;5.22;1.70;;;;;;;;;;5045896;28;20044;-69
2023/09/19 09:35:56;;;;;;;6.22;1.50;;;;;;;;;;5042392;28;20075;-69
2023/09/19 09:38:27;;;;;;;8.90;1.65;;;;;;;;;;5052438;28;20052;-68
2023/09/19 09:41:01;;;;;;;5.28;1.40;;;;;;;;;;5041794;28;20095;-69
2023/09/19 09:43:35;;;;;;;3.95;1.60;;;;;;;;;;5046712;28;20361;-69
2023/09/19 09:49:16;;;;;;;6.93;1.50;;;;;;;;;;5043596;28;20153;-67
2023/09/19 09:51:45;;;;;;;7.25;2.00;;;;;;;;;;5053066;28;20128;-69
2023/09/19 09:54:14;;;;;;;7.60;2.22;;;;;;;;;;5046201;28;20068;-68
2023/09/19 09:56:58;;;;;;;5.43;2.03;;;;;;;;;;5045919;28;20076;-68
2023/09/19 09:59:50;;;;;;;6.25;1.42;;;;;;;;;;5048807;28;20067;-68
2023/09/19 10:02:24;;;;;;;6.30;1.63;;;;;;;;;;5045588;28;20143;-68
2023/09/19 10:04:59;;;;;;;6.07;1.63;;;;;;;;;;5047936;28;20056;-68
2023/09/19 10:07:32;;;;;;;6.15;1.58;;;;;;;;;;5045425;28;20077;-69
2023/09/19 10:10:09;;;;;;;5.18;1.42;;;;;;;;;;5047956;28;20051;-67
2023/09/19 10:12:51;;;;;;;6.32;1.70;;;;;;;;;;5044774;28;20048;-69
2023/09/19 10:15:21;;;;;;;6.18;1.80;;;;;;;;;;5050256;28;20045;-69
2023/09/19 10:17:49;;;;;;;6.18;1.50;;;;;;;;;;5047830;28;20064;-69
2023/09/19 10:20:33;;;;;;;8.18;1.80;;;;;;;;;;5043482;28;20052;-69
2023/09/19 10:23:09;;;;;;;6.25;1.50;;;;;;;;;;5040631;28;20044;-68
2023/09/19 10:25:38;;;;;;;5.95;1.63;;;;;;;;;;5041018;28;20045;-69
2023/09/19 10:28:10;;;;;;;5.00;1.42;;;;;;;;;;5044239;28;20143;-70
2023/09/19 10:30:43;;;;;;;7.57;1.60;;;;;;;;;;5045260;28;20056;-68
2023/09/19 10:33:10;;;;;;;5.80;1.33;;;;;;;;;;5044737;28;20366;-69
2023/09/19 10:35:40;;;;;;;10.82;1.65;;;;;;;;;;5046449;28;20110;-68
2023/09/19 10:38:08;;;;;;;4.25;1.50;;;;;;;;;;5049801;28;20455;-68
2023/09/19 10:40:36;;;;;;;2.97;1.08;;;;;;;;;;5042838;28;20492;-68
2023/09/19 10:43:06;;;;;;;3.88;1.17;;;;;;;;;;5039384;28;20489;-68
2023/09/19 10:45:34;;;;;;;3.67;1.45;;;;;;;;;;5044338;28;20083;-68
2023/09/19 10:48:02;;;;;;;2.80;1.10;;;;;;;;;;5047758;28;20132;-68
2023/09/19 10:50:32;;;;;;;6.95;1.50;;;;;;;;;;5049719;28;20060;-68
2023/09/19 10:53:04;;;;;;;4.07;1.30;;;;;;;;;;5049635;28;20059;-68
2023/09/19 10:55:32;;;;;;;5.50;1.30;;;;;;;;;;5047061;28;20087;-68
2023/09/19 10:58:14;;;;;;;3.50;1.05;;;;;;;;;;5049207;28;20049;-68
2023/09/19 11:00:56;;;;;;;5.15;1.10;;;;;;;;;;5046831;28;20049;-68
2023/09/19 11:03:30;;;;;;;2.83;1.00;;;;;;;;;;5044906;28;20128;-69
2023/09/19 11:06:06;;;;;;;7.80;1.50;;;;;;;;;;5047728;28;20519;-68
2023/09/19 11:08:57;;;;;;;5.13;1.42;;;;;;;;;;5043938;28;20056;-69
2023/09/19 11:11:46;;;;;;;5.15;1.33;;;;;;;;;;5042475;28;20420;-69
2023/09/19 11:14:17;;;;;;;5.68;1.15;;;;;;;;;;5040636;28;20052;-68
2023/09/19 11:17:17;;;;;;;4.57;1.45;;;;;;;;;;5046761;28;20124;-68
2023/09/19 11:20:24;;;;;;;4.20;1.42;;;;;;;;;;5042916;28;20484;-68
2023/09/19 11:23:25;;;;;;;4.40;1.25;;;;;;;;;;5041832;28;20049;-68
2023/09/19 11:25:54;;;;;;;6.57;1.30;;;;;;;;;;5042948;28;20648;-68
2023/09/19 11:28:38;;;;;;;3.47;1.17;;;;;;;;;;5048708;28;20056;-68
2023/09/19 11:31:51;;;;;;;5.20;1.13;;;;;;;;;;5048614;28;20171;-68
2023/09/19 11:34:40;;;;;;;3.30;1.20;;;;;;;;;;5036626;28;20135;-68
2023/09/19 11:37:41;;;;;;;3.63;1.40;;;;;;;;;;5042824;28;20057;-68
2023/09/19 11:40:15;;;;;;;5.53;1.45;;;;;;;;;;5029556;28;20044;-68
2023/09/19 11:42:43;;;;;;;4.57;1.38;;;;;;;;;;5044930;28;20045;-68
2023/09/19 11:45:45;;;;;;;7.47;1.25;;;;;;;;;;5042597;28;20412;-69
2023/09/19 11:48:14;;;;;;;3.85;1.08;;;;;;;;;;5042947;28;20060;-68
2023/09/19 11:50:44;;;;;;;3.40;1.70;;;;;;;;;;5045119;28;20067;-68
2023/09/19 11:53:11;;;;;;;3.95;1.33;;;;;;;;;;5045090;28;20045;-68
2023/09/19 11:55:40;;;;;;;2.42;0.95;;;;;;;;;;5042952;28;20049;-69
2023/09/19 11:58:08;;;;;;;4.00;1.20;;;;;;;;;;5045505;28;20049;-69
2023/09/19 12:00:36;;;;;;;4.00;1.25;;;;;;;;;;5044235;28;20056;-68
2023/09/19 12:03:09;;;;;;;4.30;1.20;;;;;;;;;;5040205;28;20047;-69
2023/09/19 12:05:37;;;;;;;3.67;1.25;;;;;;;;;;5040498;28;20045;-69
2023/09/19 12:08:07;;;;;;;4.25;1.23;;;;;;;;;;5048211;28;20049;-69
2023/09/19 12:10:34;;;;;;;3.58;1.20;;;;;;;;;;5042202;28;20544;-69
2023/09/19 12:13:02;;;;;;;3.97;1.00;;;;;;;;;;5048711;28;20048;-69
2023/09/19 12:15:34;;;;;;;3.25;1.42;;;;;;;;;;5039452;28;20144;-68
2023/09/19 12:18:03;;;;;;;4.70;1.35;;;;;;;;;;5042700;28;20077;-69
2023/09/19 12:20:46;;;;;;;6.57;1.30;;;;;;;;;;5047892;28;20132;-69
2023/09/19 12:23:14;;;;;;;2.63;1.00;;;;;;;;;;5039039;28;20041;-69
2023/09/19 12:25:46;;;;;;;5.45;1.38;;;;;;;;;;5041172;28;20060;-70
2023/09/19 12:28:16;;;;;;;;;;;;;;;;;;5040993;28;20471;-69
2023/09/19 12:30:44;;;;;;;2.80;0.98;;;;;;;;;;5045350;28;19927;-69
2023/09/19 12:33:18;;;;;;;2.65;1.00;;;;;;;;;;5041128;28;20049;-69
2023/09/19 12:35:45;;;;;;;2.15;1.08;;;;;;;;;;5044496;28;20056;-69
2023/09/19 12:38:12;;;;;;;6.97;1.33;;;;;;;;;;5042500;28;20049;-69
2023/09/19 12:40:42;;;;;;;4.70;1.10;;;;;;;;;;5041761;28;20425;-69
2023/09/19 12:43:15;;;;;;;5.90;1.63;;;;;;;;;;5038165;28;20075;-69
2023/09/19 12:45:44;;;;;;;1.63;0.90;;;;;;;;;;5048273;28;20048;-69
2023/09/19 12:48:22;;;;;;;1.98;1.00;;;;;;;;;;5040851;28;20059;-69
2023/09/19 12:51:07;;;;;;;3.88;1.23;;;;;;;;;;5049782;28;20493;-69
2023/09/19 12:53:37;;;;;;;4.45;1.20;;;;;;;;;;5042909;28;20049;-69
2023/09/19 12:56:06;;;;;;;2.92;1.02;;;;;;;;;;5042821;28;20107;-69
2023/09/19 12:58:34;;;;;;;4.07;1.05;;;;;;;;;;5042940;28;20485;-69
2023/09/19 13:01:05;;;;;;;2.13;1.10;;;;;;;;;;5045481;28;20048;-69
2023/09/19 13:03:34;;;;;;;2.90;1.17;;;;;;;;;;5044444;28;20490;-69
2023/09/19 13:06:03;;;;;;;3.03;1.20;;;;;;;;;;5042799;28;20041;-69
2023/09/19 13:08:32;;;;;;;2.50;1.10;;;;;;;;;;5045358;28;20041;-69
2023/09/19 13:11:09;;;;;;;4.03;1.13;;;;;;;;;;5043729;28;20049;-69
2023/09/19 13:13:37;;;;;;;3.22;1.20;;;;;;;;;;5044918;28;20063;-69
2023/09/19 13:16:08;;;;;;;2.55;1.23;;;;;;;;;;5045007;28;20511;-69
2023/09/19 13:18:50;;;;;;;5.05;1.10;;;;;;;;;;5047767;28;20140;-69
2023/09/19 13:21:24;;;;;;;3.92;1.00;;;;;;;;;;5039713;28;20045;-70
2023/09/19 13:23:52;;;;;;;3.33;1.17;;;;;;;;;;5038509;28;20132;-69
2023/09/19 13:26:19;;;;;;;3.13;1.10;;;;;;;;;;5047815;28;20060;-69
2023/09/19 13:28:47;;;;;;;2.58;1.00;;;;;;;;;;5040459;28;20483;-69
2023/09/19 13:31:16;;;;;;;5.55;1.40;;;;;;;;;;5045589;28;20060;-69
2023/09/19 13:33:46;;;;;;;3.75;1.08;;;;;;;;;;5044655;28;20045;-69
2023/09/19 13:36:13;;;;;;;2.67;1.10;;;;;;;;;;5044342;28;20123;-69
2023/09/19 13:38:42;;;;;;;3.40;1.15;;;;;;;;;;5044327;28;20057;-69
2023/09/19 13:41:09;;;;;;;3.88;1.25;;;;;;;;;;5047321;28;20115;-70
2023/09/19 13:43:36;;;;;;;5.75;1.02;;;;;;;;;;5048611;28;20397;-69
2023/09/19 13:46:03;;;;;;;2.85;1.00;;;;;;;;;;5048947;28;20048;-66
2023/09/19 13:48:31;;;;;;;4.05;1.15;;;;;;;;;;5050831;28;20076;-70
2023/09/19 13:50:58;;;;;;;3.33;1.00;;;;;;;;;;5049411;28;20045;-70
2023/09/19 13:53:25;;;;;;;5.00;1.10;;;;;;;;;;5040985;28;20493;-67
2023/09/19 13:55:52;;;;;;;2.15;1.00;;;;;;;;;;5042288;28;20056;-67
2023/09/19 13:58:18;;;;;;;2.33;1.38;;;;;;;;;;5049116;28;20497;-70
2023/09/19 14:00:45;;;;;;;2.38;1.00;;;;;;;;;;5047887;28;20053;-69
2023/09/19 14:03:12;;;;;;;1.70;1.00;;;;;;;;;;5049852;28;20041;-70
2023/09/19 14:05:39;;;;;;;1.98;0.88;;;;;;;;;;5049384;28;20451;-69
2023/09/19 14:08:06;;;;;;;2.67;1.10;;;;;;;;;;5050660;28;20571;-70
2023/09/19 14:10:33;;;;;;;4.00;1.23;;;;;;;;;;5044376;28;20045;-69
2023/09/19 14:12:59;;;;;;;2.75;1.02;;;;;;;;;;5043587;28;20132;-69
2023/09/19 14:15:29;;;;;;;3.30;1.10;;;;;;;;;;5051772;28;20489;-67
2023/09/19 14:17:56;;;;;;;1.77;0.90;;;;;;;;;;5048616;28;20599;-67
2023/09/19 14:20:23;;;;;;;1.80;0.82;;;;;;;;;;5047626;28;20099;-69
2023/09/19 14:22:51;;;;;;;1.70;0.88;;;;;;;;;;5049094;28;20045;-69
2023/09/19 14:25:18;;;;;;;1.88;1.08;;;;;;;;;;5042959;28;20515;-68
2023/09/19 14:27:44;;;;;;;1.48;0.90;;;;;;;;;;5046122;28;20416;-70
2023/09/19 14:30:12;;;;;;;1.35;0.88;;;;;;;;;;5049994;28;20049;-69
2023/09/19 14:32:39;;;;;;;1.92;0.90;;;;;;;;;;5048009;28;20131;-69
2023/09/19 14:35:06;;;;;;;2.15;0.80;;;;;;;;;;5049500;28;20048;-68
2023/09/19 14:37:33;;;;;;;2.15;0.85;;;;;;;;;;5041517;28;20132;-69
2023/09/19 14:40:08;;;;;;;1.98;0.80;;;;;;;;;;5045758;28;20052;-69
2023/09/19 14:42:35;;;;;;;4.20;1.00;;;;;;;;;;5047854;28;20045;-69
2023/09/19 14:45:03;;;;;;;2.58;1.08;;;;;;;;;;5047984;28;20481;-69
2023/09/19 14:47:31;;;;;;;2.65;0.98;;;;;;;;;;5041038;28;20045;-69
2023/09/19 14:49:58;;;;;;;4.57;1.10;;;;;;;;;;5047075;28;20045;-68
2023/09/19 14:52:28;;;;;;;2.17;1.15;;;;;;;;;;5048920;28;20045;-69
2023/09/19 14:54:54;;;;;;;2.72;1.30;;;;;;;;;;5046279;28;20401;-69
2023/09/19 14:57:24;;;;;;;2.55;1.00;;;;;;;;;;5049530;28;20041;-69